sensor_id;sensor_type;location;lat;lon;timestamp;P1;durP1;ratioP1;P2;durP2;ratioP2
19836;SDS011;10079;55.740;37.662;2023-05-02T00:00:36;4.70;;;1.60;;
19836;SDS011;10079;55.740;37.662;2023-05-02T00:03:26;2.40;;;1.90;;
19836;SDS011;10079;55.740;37.662;2023-05-02T00:06:06;1.97;;;1.80;;
19836;SDS011;10079;55.740;37.662;2023-05-02T00:08:59;4.23;;;1.73;;
19836;SDS011;10079;55.740;37.662;2023-05-02T00:33:09;1.93;;;1.60;;
19836;SDS011;10079;55.740;37.662;2023-05-02T00:35:56;1.60;;;1.40;;
19836;SDS011;10079;55.740;37.662;2023-05-02T00:38:50;2.80;;;1.47;;
19836;SDS011;10079;55.740;37.662;2023-05-02T00:41:31;2.37;;;1.77;;
19836;SDS011;10079;55.740;37.662;2023-05-02T00:44:12;1.93;;;1.40;;
19836;SDS011;10079;55.740;37.662;2023-05-02T00:47:04;3.47;;;1.60;;
19836;SDS011;10079;55.740;37.662;2023-05-02T00:49:45;1.73;;;1.53;;
19836;SDS011;10079;55.740;37.662;2023-05-02T00:52:29;2.00;;;1.47;;
19836;SDS011;10079;55.740;37.662;2023-05-02T00:55:10;2.27;;;1.67;;
19836;SDS011;10079;55.740;37.662;2023-05-02T00:57:50;2.73;;;1.80;;
19836;SDS011;10079;55.740;37.662;2023-05-02T01:00:42;2.90;;;1.70;;
19836;SDS011;10079;55.740;37.662;2023-05-02T01:06:52;4.57;;;2.60;;
19836;SDS011;10079;55.740;37.662;2023-05-02T01:09:38;3.23;;;1.50;;
19836;SDS011;10079;55.740;37.662;2023-05-02T01:12:23;3.13;;;1.87;;
19836;SDS011;10079;55.740;37.662;2023-05-02T01:15:01;2.20;;;1.77;;
19836;SDS011;10079;55.740;37.662;2023-05-02T01:17:45;3.47;;;2.00;;
19836;SDS011;10079;55.740;37.662;2023-05-02T01:20:26;3.63;;;1.63;;
19836;SDS011;10079;55.740;37.662;2023-05-02T01:26:15;2.37;;;1.60;;
19836;SDS011;10079;55.740;37.662;2023-05-02T01:29:13;4.20;;;1.97;;
19836;SDS011;10079;55.740;37.662;2023-05-02T01:31:53;1.90;;;1.73;;
19836;SDS011;10079;55.740;37.662;2023-05-02T01:34:35;6.50;;;1.63;;
19836;SDS011;10079;55.740;37.662;2023-05-02T01:37:15;2.33;;;1.90;;
19836;SDS011;10079;55.740;37.662;2023-05-02T01:39:57;2.00;;;1.50;;
19836;SDS011;10079;55.740;37.662;2023-05-02T01:42:37;3.93;;;1.70;;
19836;SDS011;10079;55.740;37.662;2023-05-02T01:45:19;5.03;;;1.70;;
19836;SDS011;10079;55.740;37.662;2023-05-02T01:47:59;2.73;;;1.43;;
19836;SDS011;10079;55.740;37.662;2023-05-02T01:50:43;4.13;;;1.93;;
19836;SDS011;10079;55.740;37.662;2023-05-02T01:53:27;2.73;;;1.80;;
19836;SDS011;10079;55.740;37.662;2023-05-02T01:56:20;3.50;;;1.90;;
19836;SDS011;10079;55.740;37.662;2023-05-02T01:59:01;4.57;;;1.80;;
19836;SDS011;10079;55.740;37.662;2023-05-02T02:01:42;3.23;;;1.90;;
19836;SDS011;10079;55.740;37.662;2023-05-02T02:04:23;2.37;;;2.00;;
19836;SDS011;10079;55.740;37.662;2023-05-02T02:07:05;3.27;;;2.10;;
19836;SDS011;10079;55.740;37.662;2023-05-02T02:09:49;4.03;;;1.80;;
19836;SDS011;10079;55.740;37.662;2023-05-02T02:12:34;2.80;;;1.97;;
19836;SDS011;10079;55.740;37.662;2023-05-02T02:15:17;4.53;;;2.17;;
19836;SDS011;10079;55.740;37.662;2023-05-02T02:17:59;3.23;;;2.10;;
19836;SDS011;10079;55.740;37.662;2023-05-02T02:20:51;4.37;;;1.93;;
19836;SDS011;10079;55.740;37.662;2023-05-02T02:23:33;3.70;;;2.27;;
19836;SDS011;10079;55.740;37.662;2023-05-02T02:26:13;2.73;;;1.87;;
19836;SDS011;10079;55.740;37.662;2023-05-02T02:28:54;3.43;;;2.13;;
19836;SDS011;10079;55.740;37.662;2023-05-02T02:31:39;4.10;;;2.33;;
19836;SDS011;10079;55.740;37.662;2023-05-02T02:34:20;3.07;;;1.97;;
19836;SDS011;10079;55.740;37.662;2023-05-02T02:37:04;5.03;;;1.90;;
19836;SDS011;10079;55.740;37.662;2023-05-02T02:42:54;4.73;;;2.33;;
19836;SDS011;10079;55.740;37.662;2023-05-02T02:45:37;4.83;;;2.20;;
19836;SDS011;10079;55.740;37.662;2023-05-02T02:59:18;3.47;;;2.50;;
19836;SDS011;10079;55.740;37.662;2023-05-02T03:02:12;4.20;;;2.07;;
19836;SDS011;10079;55.740;37.662;2023-05-02T03:05:04;3.27;;;2.47;;
19836;SDS011;10079;55.740;37.662;2023-05-02T03:07:49;5.37;;;2.40;;
19836;SDS011;10079;55.740;37.662;2023-05-02T03:10:33;7.23;;;2.70;;
19836;SDS011;10079;55.740;37.662;2023-05-02T03:13:17;5.37;;;2.23;;
19836;SDS011;10079;55.740;37.662;2023-05-02T03:19:13;4.27;;;2.47;;
19836;SDS011;10079;55.740;37.662;2023-05-02T03:21:58;3.47;;;2.47;;
19836;SDS011;10079;55.740;37.662;2023-05-02T03:24:42;2.00;;;1.80;;
19836;SDS011;10079;55.740;37.662;2023-05-02T03:27:26;2.50;;;2.00;;
19836;SDS011;10079;55.740;37.662;2023-05-02T03:30:07;4.80;;;2.10;;
19836;SDS011;10079;55.740;37.662;2023-05-02T03:43:23;2.07;;;1.93;;
19836;SDS011;10079;55.740;37.662;2023-05-02T03:46:08;4.40;;;2.10;;
19836;SDS011;10079;55.740;37.662;2023-05-02T03:59:23;3.03;;;2.07;;
19836;SDS011;10079;55.740;37.662;2023-05-02T04:02:04;3.40;;;2.30;;
19836;SDS011;10079;55.740;37.662;2023-05-02T04:04:48;3.30;;;2.20;;
19836;SDS011;10079;55.740;37.662;2023-05-02T04:07:33;3.73;;;2.10;;
19836;SDS011;10079;55.740;37.662;2023-05-02T04:10:13;4.33;;;2.40;;
19836;SDS011;10079;55.740;37.662;2023-05-02T04:12:54;4.80;;;2.40;;
19836;SDS011;10079;55.740;37.662;2023-05-02T04:15:34;3.37;;;2.00;;
19836;SDS011;10079;55.740;37.662;2023-05-02T04:18:27;4.17;;;2.20;;
19836;SDS011;10079;55.740;37.662;2023-05-02T04:21:20;2.90;;;1.87;;
19836;SDS011;10079;55.740;37.662;2023-05-02T04:24:12;5.13;;;2.43;;
19836;SDS011;10079;55.740;37.662;2023-05-02T04:26:55;4.63;;;2.40;;
19836;SDS011;10079;55.740;37.662;2023-05-02T04:29:35;4.13;;;2.60;;
19836;SDS011;10079;55.740;37.662;2023-05-02T04:42:52;3.10;;;2.20;;
19836;SDS011;10079;55.740;37.662;2023-05-02T04:45:34;5.13;;;2.50;;
19836;SDS011;10079;55.740;37.662;2023-05-02T04:48:22;5.55;;;2.47;;
19836;SDS011;10079;55.740;37.662;2023-05-02T04:51:03;2.95;;;2.30;;
19836;SDS011;10079;55.740;37.662;2023-05-02T04:53:44;3.50;;;2.17;;
19836;SDS011;10079;55.740;37.662;2023-05-02T04:56:37;3.40;;;2.10;;
19836;SDS011;10079;55.740;37.662;2023-05-02T04:59:21;3.80;;;2.25;;
19836;SDS011;10079;55.740;37.662;2023-05-02T05:02:02;3.17;;;2.53;;
19836;SDS011;10079;55.740;37.662;2023-05-02T05:04:44;4.12;;;2.50;;
19836;SDS011;10079;55.740;37.662;2023-05-02T05:07:28;3.30;;;2.35;;
19836;SDS011;10079;55.740;37.662;2023-05-02T05:10:09;6.65;;;2.30;;
19836;SDS011;10079;55.740;37.662;2023-05-02T05:12:50;4.45;;;2.22;;
19836;SDS011;10079;55.740;37.662;2023-05-02T05:15:31;3.08;;;1.92;;
19836;SDS011;10079;55.740;37.662;2023-05-02T05:18:11;2.70;;;2.25;;
19836;SDS011;10079;55.740;37.662;2023-05-02T05:20:55;6.45;;;2.60;;
19836;SDS011;10079;55.740;37.662;2023-05-02T05:34:16;4.97;;;2.22;;
19836;SDS011;10079;55.740;37.662;2023-05-02T05:37:05;2.10;;;1.90;;
19836;SDS011;10079;55.740;37.662;2023-05-02T05:39:46;3.80;;;2.83;;
19836;SDS011;10079;55.740;37.662;2023-05-02T05:42:35;3.28;;;1.98;;
19836;SDS011;10079;55.740;37.662;2023-05-02T05:45:27;4.87;;;2.37;;
19836;SDS011;10079;55.740;37.662;2023-05-02T05:48:20;3.92;;;2.65;;
19836;SDS011;10079;55.740;37.662;2023-05-02T06:01:44;4.00;;;2.53;;
19836;SDS011;10079;55.740;37.662;2023-05-02T06:04:33;3.25;;;1.70;;
19836;SDS011;10079;55.740;37.662;2023-05-02T06:07:17;4.07;;;1.80;;
19836;SDS011;10079;55.740;37.662;2023-05-02T06:20:38;4.10;;;1.95;;
19836;SDS011;10079;55.740;37.662;2023-05-02T06:23:19;2.92;;;1.87;;
19836;SDS011;10079;55.740;37.662;2023-05-02T06:26:00;3.83;;;2.00;;
19836;SDS011;10079;55.740;37.662;2023-05-02T06:28:47;3.25;;;1.77;;
19836;SDS011;10079;55.740;37.662;2023-05-02T06:31:28;3.50;;;1.55;;
19836;SDS011;10079;55.740;37.662;2023-05-02T06:34:12;4.57;;;2.62;;
19836;SDS011;10079;55.740;37.662;2023-05-02T06:37:05;3.37;;;1.60;;
19836;SDS011;10079;55.740;37.662;2023-05-02T06:39:46;3.55;;;2.00;;
19836;SDS011;10079;55.740;37.662;2023-05-02T06:42:30;3.40;;;1.45;;
19836;SDS011;10079;55.740;37.662;2023-05-02T06:45:11;2.72;;;1.50;;
19836;SDS011;10079;55.740;37.662;2023-05-02T06:47:56;1.87;;;1.45;;
19836;SDS011;10079;55.740;37.662;2023-05-02T06:50:36;2.87;;;1.37;;
19836;SDS011;10079;55.740;37.662;2023-05-02T06:53:18;3.35;;;1.48;;
19836;SDS011;10079;55.740;37.662;2023-05-02T06:55:59;2.40;;;1.30;;
19836;SDS011;10079;55.740;37.662;2023-05-02T06:58:40;4.90;;;1.48;;
19836;SDS011;10079;55.740;37.662;2023-05-02T07:01:21;2.20;;;1.30;;
19836;SDS011;10079;55.740;37.662;2023-05-02T07:04:14;3.45;;;1.55;;
19836;SDS011;10079;55.740;37.662;2023-05-02T07:06:58;1.30;;;1.10;;
19836;SDS011;10079;55.740;37.662;2023-05-02T07:09:39;1.83;;;1.30;;
19836;SDS011;10079;55.740;37.662;2023-05-02T07:12:20;2.50;;;1.17;;
19836;SDS011;10079;55.740;37.662;2023-05-02T07:15:01;1.30;;;1.20;;
19836;SDS011;10079;55.740;37.662;2023-05-02T07:17:42;1.65;;;1.20;;
19836;SDS011;10079;55.740;37.662;2023-05-02T07:20:23;1.20;;;1.10;;
19836;SDS011;10079;55.740;37.662;2023-05-02T07:23:05;2.10;;;1.15;;
19836;SDS011;10079;55.740;37.662;2023-05-02T07:25:46;5.28;;;1.30;;
19836;SDS011;10079;55.740;37.662;2023-05-02T07:31:15;2.40;;;1.12;;
19836;SDS011;10079;55.740;37.662;2023-05-02T07:33:56;2.33;;;1.40;;
19836;SDS011;10079;55.740;37.662;2023-05-02T07:36:37;2.95;;;1.40;;
19836;SDS011;10079;55.740;37.662;2023-05-02T07:39:19;4.50;;;1.30;;
19836;SDS011;10079;55.740;37.662;2023-05-02T07:44:47;3.83;;;1.45;;
19836;SDS011;10079;55.740;37.662;2023-05-02T07:47:29;1.70;;;1.08;;
19836;SDS011;10079;55.740;37.662;2023-05-02T07:50:21;5.53;;;1.60;;
19836;SDS011;10079;55.740;37.662;2023-05-02T07:53:02;2.75;;;1.70;;
19836;SDS011;10079;55.740;37.662;2023-05-02T07:55:43;2.40;;;1.50;;
19836;SDS011;10079;55.740;37.662;2023-05-02T07:58:27;2.33;;;1.30;;
19836;SDS011;10079;55.740;37.662;2023-05-02T08:01:17;2.45;;;1.40;;
19836;SDS011;10079;55.740;37.662;2023-05-02T08:04:01;1.77;;;1.08;;
19836;SDS011;10079;55.740;37.662;2023-05-02T08:06:54;2.10;;;1.17;;
19836;SDS011;10079;55.740;37.662;2023-05-02T08:09:38;3.60;;;1.50;;
19836;SDS011;10079;55.740;37.662;2023-05-02T08:23:10;6.45;;;1.83;;
19836;SDS011;10079;55.740;37.662;2023-05-02T08:26:03;2.55;;;1.10;;
19836;SDS011;10079;55.740;37.662;2023-05-02T08:28:55;1.37;;;1.15;;
19836;SDS011;10079;55.740;37.662;2023-05-02T08:31:48;1.52;;;1.30;;
19836;SDS011;10079;55.740;37.662;2023-05-02T08:34:32;2.55;;;1.30;;
19836;SDS011;10079;55.740;37.662;2023-05-02T08:37:21;1.40;;;1.30;;
19836;SDS011;10079;55.740;37.662;2023-05-02T08:40:06;1.17;;;1.00;;
19836;SDS011;10079;55.740;37.662;2023-05-02T08:43:00;1.67;;;1.48;;
19836;SDS011;10079;55.740;37.662;2023-05-02T08:45:53;1.70;;;0.93;;
19836;SDS011;10079;55.740;37.662;2023-05-02T08:48:35;1.23;;;1.10;;
19836;SDS011;10079;55.740;37.662;2023-05-02T08:51:28;2.08;;;1.00;;
19836;SDS011;10079;55.740;37.662;2023-05-02T09:15:14;1.70;;;1.10;;
19836;SDS011;10079;55.740;37.662;2023-05-02T09:17:55;1.42;;;1.27;;
19836;SDS011;10079;55.740;37.662;2023-05-02T09:20:39;1.98;;;1.67;;
19836;SDS011;10079;55.740;37.662;2023-05-02T09:23:16;1.65;;;1.17;;
19836;SDS011;10079;55.740;37.662;2023-05-02T09:26:10;2.65;;;1.40;;
19836;SDS011;10079;55.740;37.662;2023-05-02T09:28:55;3.92;;;1.30;;
19836;SDS011;10079;55.740;37.662;2023-05-02T09:31:44;2.15;;;1.37;;
19836;SDS011;10079;55.740;37.662;2023-05-02T09:34:25;2.22;;;1.10;;
19836;SDS011;10079;55.740;37.662;2023-05-02T09:37:05;1.90;;;1.62;;
19836;SDS011;10079;55.740;37.662;2023-05-02T09:40:04;2.28;;;1.30;;
19836;SDS011;10079;55.740;37.662;2023-05-02T09:42:46;1.62;;;1.15;;
19836;SDS011;10079;55.740;37.662;2023-05-02T09:45:26;3.20;;;1.05;;
19836;SDS011;10079;55.740;37.662;2023-05-02T09:48:07;2.58;;;1.27;;
19836;SDS011;10079;55.740;37.662;2023-05-02T09:50:56;1.87;;;1.10;;
19836;SDS011;10079;55.740;37.662;2023-05-02T09:53:37;2.25;;;1.20;;
19836;SDS011;10079;55.740;37.662;2023-05-02T09:56:30;3.20;;;1.30;;
19836;SDS011;10079;55.740;37.662;2023-05-02T09:59:11;2.40;;;1.30;;
19836;SDS011;10079;55.740;37.662;2023-05-02T10:01:57;1.95;;;1.48;;
19836;SDS011;10079;55.740;37.662;2023-05-02T10:04:38;2.37;;;1.37;;
19836;SDS011;10079;55.740;37.662;2023-05-02T10:07:22;1.35;;;1.25;;
19836;SDS011;10079;55.740;37.662;2023-05-02T10:10:03;4.60;;;1.50;;
19836;SDS011;10079;55.740;37.662;2023-05-02T10:12:57;2.33;;;1.27;;
19836;SDS011;10079;55.740;37.662;2023-05-02T10:15:41;2.30;;;1.23;;
19836;SDS011;10079;55.740;37.662;2023-05-02T10:18:23;3.40;;;1.40;;
19836;SDS011;10079;55.740;37.662;2023-05-02T10:21:15;2.30;;;1.27;;
19836;SDS011;10079;55.740;37.662;2023-05-02T10:23:56;1.10;;;1.00;;
19836;SDS011;10079;55.740;37.662;2023-05-02T10:26:37;1.60;;;1.10;;
19836;SDS011;10079;55.740;37.662;2023-05-02T10:29:18;2.03;;;1.10;;
19836;SDS011;10079;55.740;37.662;2023-05-02T10:32:02;5.40;;;2.73;;
19836;SDS011;10079;55.740;37.662;2023-05-02T10:34:57;3.23;;;1.53;;
19836;SDS011;10079;55.740;37.662;2023-05-02T10:37:39;1.50;;;1.17;;
19836;SDS011;10079;55.740;37.662;2023-05-02T10:40:25;2.10;;;1.20;;
19836;SDS011;10079;55.740;37.662;2023-05-02T10:43:12;2.10;;;1.87;;
19836;SDS011;10079;55.740;37.662;2023-05-02T10:45:57;1.53;;;1.13;;
19836;SDS011;10079;55.740;37.662;2023-05-02T10:48:40;1.97;;;1.30;;
19836;SDS011;10079;55.740;37.662;2023-05-02T10:51:26;2.13;;;1.23;;
19836;SDS011;10079;55.740;37.662;2023-05-02T10:54:17;5.43;;;1.40;;
19836;SDS011;10079;55.740;37.662;2023-05-02T10:57:01;3.27;;;1.30;;
19836;SDS011;10079;55.740;37.662;2023-05-02T10:59:54;3.60;;;2.40;;
19836;SDS011;10079;55.740;37.662;2023-05-02T11:02:46;2.70;;;1.47;;
19836;SDS011;10079;55.740;37.662;2023-05-02T11:05:28;2.23;;;1.53;;
19836;SDS011;10079;55.740;37.662;2023-05-02T11:08:28;3.40;;;1.63;;
19836;SDS011;10079;55.740;37.662;2023-05-02T11:20:42;2.23;;;1.10;;
19836;SDS011;10079;55.740;37.662;2023-05-02T11:23:23;1.40;;;1.10;;
19836;SDS011;10079;55.740;37.662;2023-05-02T11:26:20;3.47;;;1.10;;
19836;SDS011;10079;55.740;37.662;2023-05-02T11:29:04;2.40;;;1.43;;
19836;SDS011;10079;55.740;37.662;2023-05-02T11:31:54;3.27;;;1.40;;
19836;SDS011;10079;55.740;37.662;2023-05-02T11:34:39;3.87;;;1.50;;
19836;SDS011;10079;55.740;37.662;2023-05-02T11:37:37;1.83;;;1.37;;
19836;SDS011;10079;55.740;37.662;2023-05-02T11:40:22;3.23;;;1.40;;
19836;SDS011;10079;55.740;37.662;2023-05-02T11:56:31;3.50;;;1.60;;
19836;SDS011;10079;55.740;37.662;2023-05-02T11:59:15;2.40;;;1.20;;
19836;SDS011;10079;55.740;37.662;2023-05-02T12:23:24;5.77;;;1.50;;
19836;SDS011;10079;55.740;37.662;2023-05-02T12:26:22;3.03;;;1.43;;
19836;SDS011;10079;55.740;37.662;2023-05-02T12:29:07;2.47;;;1.40;;
19836;SDS011;10079;55.740;37.662;2023-05-02T12:31:50;3.83;;;1.37;;
19836;SDS011;10079;55.740;37.662;2023-05-02T12:34:32;5.10;;;1.30;;
19836;SDS011;10079;55.740;37.662;2023-05-02T12:48:00;3.30;;;1.53;;
19836;SDS011;10079;55.740;37.662;2023-05-02T12:50:47;3.73;;;1.70;;
19836;SDS011;10079;55.740;37.662;2023-05-02T12:53:37;2.20;;;1.53;;
19836;SDS011;10079;55.740;37.662;2023-05-02T13:07:02;3.30;;;1.47;;
19836;SDS011;10079;55.740;37.662;2023-05-02T13:09:46;2.70;;;1.40;;
19836;SDS011;10079;55.740;37.662;2023-05-02T13:12:30;6.70;;;1.90;;
19836;SDS011;10079;55.740;37.662;2023-05-02T13:15:17;3.40;;;1.30;;
19836;SDS011;10079;55.740;37.662;2023-05-02T13:18:10;3.70;;;2.03;;
19836;SDS011;10079;55.740;37.662;2023-05-02T13:20:54;2.33;;;1.40;;
19836;SDS011;10079;55.740;37.662;2023-05-02T13:23:38;1.83;;;1.27;;
19836;SDS011;10079;55.740;37.662;2023-05-02T13:26:23;3.53;;;1.67;;
19836;SDS011;10079;55.740;37.662;2023-05-02T13:29:04;4.27;;;2.30;;
19836;SDS011;10079;55.740;37.662;2023-05-02T13:31:49;4.47;;;2.80;;
19836;SDS011;10079;55.740;37.662;2023-05-02T13:34:33;4.73;;;2.00;;
19836;SDS011;10079;55.740;37.662;2023-05-02T13:37:16;3.27;;;1.60;;
19836;SDS011;10079;55.740;37.662;2023-05-02T13:40:00;2.60;;;1.40;;
19836;SDS011;10079;55.740;37.662;2023-05-02T13:53:18;2.50;;;1.50;;
19836;SDS011;10079;55.740;37.662;2023-05-02T13:56:03;5.20;;;3.87;;
19836;SDS011;10079;55.740;37.662;2023-05-02T13:58:45;3.93;;;1.97;;
19836;SDS011;10079;55.740;37.662;2023-05-02T14:01:31;4.17;;;2.10;;
19836;SDS011;10079;55.740;37.662;2023-05-02T14:04:20;2.63;;;1.80;;
19836;SDS011;10079;55.740;37.662;2023-05-02T14:07:03;2.13;;;1.40;;
19836;SDS011;10079;55.740;37.662;2023-05-02T14:09:49;4.30;;;1.50;;
19836;SDS011;10079;55.740;37.662;2023-05-02T14:12:34;2.30;;;1.27;;
19836;SDS011;10079;55.740;37.662;2023-05-02T14:15:16;1.97;;;1.43;;
19836;SDS011;10079;55.740;37.662;2023-05-02T14:18:01;2.83;;;1.57;;
19836;SDS011;10079;55.740;37.662;2023-05-02T14:31:26;3.10;;;1.63;;
19836;SDS011;10079;55.740;37.662;2023-05-02T14:34:13;2.33;;;1.53;;
19836;SDS011;10079;55.740;37.662;2023-05-02T14:36:54;2.13;;;1.53;;
19836;SDS011;10079;55.740;37.662;2023-05-02T14:39:38;6.50;;;2.63;;
19836;SDS011;10079;55.740;37.662;2023-05-02T14:42:31;3.07;;;1.93;;
19836;SDS011;10079;55.740;37.662;2023-05-02T14:45:15;2.93;;;1.50;;
19836;SDS011;10079;55.740;37.662;2023-05-02T14:48:01;5.00;;;1.50;;
19836;SDS011;10079;55.740;37.662;2023-05-02T15:01:21;5.07;;;1.27;;
19836;SDS011;10079;55.740;37.662;2023-05-02T15:04:12;3.60;;;1.27;;
19836;SDS011;10079;55.740;37.662;2023-05-02T15:07:02;3.10;;;1.07;;
19836;SDS011;10079;55.740;37.662;2023-05-02T15:09:44;4.50;;;2.07;;
19836;SDS011;10079;55.740;37.662;2023-05-02T15:12:28;2.03;;;1.83;;
19836;SDS011;10079;55.740;37.662;2023-05-02T15:15:15;1.60;;;1.07;;
19836;SDS011;10079;55.740;37.662;2023-05-02T15:17:56;2.50;;;1.30;;
19836;SDS011;10079;55.740;37.662;2023-05-02T15:31:17;4.30;;;1.37;;
19836;SDS011;10079;55.740;37.662;2023-05-02T15:34:02;2.53;;;1.40;;
19836;SDS011;10079;55.740;37.662;2023-05-02T15:36:59;3.83;;;2.00;;
19836;SDS011;10079;55.740;37.662;2023-05-02T15:39:49;3.30;;;1.20;;
19836;SDS011;10079;55.740;37.662;2023-05-02T15:42:34;2.97;;;1.20;;
19836;SDS011;10079;55.740;37.662;2023-05-02T15:45:17;4.60;;;1.70;;
19836;SDS011;10079;55.740;37.662;2023-05-02T15:47:58;5.07;;;1.60;;
19836;SDS011;10079;55.740;37.662;2023-05-02T15:50:43;4.53;;;1.13;;
19836;SDS011;10079;55.740;37.662;2023-05-02T15:53:24;4.57;;;1.70;;
19836;SDS011;10079;55.740;37.662;2023-05-02T15:56:20;3.23;;;1.70;;
19836;SDS011;10079;55.740;37.662;2023-05-02T15:59:03;1.87;;;1.30;;
19836;SDS011;10079;55.740;37.662;2023-05-02T16:12:23;2.87;;;1.27;;
19836;SDS011;10079;55.740;37.662;2023-05-02T16:15:04;3.03;;;1.43;;
19836;SDS011;10079;55.740;37.662;2023-05-02T16:17:46;3.07;;;1.47;;
19836;SDS011;10079;55.740;37.662;2023-05-02T16:20:39;4.63;;;1.30;;
19836;SDS011;10079;55.740;37.662;2023-05-02T16:23:23;2.73;;;1.40;;
19836;SDS011;10079;55.740;37.662;2023-05-02T16:26:09;5.23;;;1.43;;
19836;SDS011;10079;55.740;37.662;2023-05-02T16:39:38;3.70;;;1.37;;
19836;SDS011;10079;55.740;37.662;2023-05-02T16:42:20;4.20;;;1.40;;
19836;SDS011;10079;55.740;37.662;2023-05-02T16:45:03;3.43;;;1.50;;
19836;SDS011;10079;55.740;37.662;2023-05-02T16:47:45;2.50;;;1.30;;
19836;SDS011;10079;55.740;37.662;2023-05-02T16:50:29;5.90;;;1.47;;
19836;SDS011;10079;55.740;37.662;2023-05-02T16:53:13;2.63;;;1.30;;
19836;SDS011;10079;55.740;37.662;2023-05-02T16:56:01;4.17;;;1.30;;
19836;SDS011;10079;55.740;37.662;2023-05-02T16:58:46;5.40;;;1.57;;
19836;SDS011;10079;55.740;37.662;2023-05-02T17:01:27;2.30;;;1.20;;
19836;SDS011;10079;55.740;37.662;2023-05-02T17:04:08;5.97;;;1.60;;
19836;SDS011;10079;55.740;37.662;2023-05-02T17:06:57;4.10;;;1.43;;
19836;SDS011;10079;55.740;37.662;2023-05-02T17:09:40;3.90;;;1.10;;
19836;SDS011;10079;55.740;37.662;2023-05-02T17:12:34;3.33;;;1.30;;
19836;SDS011;10079;55.740;37.662;2023-05-02T17:15:18;3.30;;;1.47;;
19836;SDS011;10079;55.740;37.662;2023-05-02T17:18:02;5.43;;;1.73;;
19836;SDS011;10079;55.740;37.662;2023-05-02T17:20:47;2.77;;;1.50;;
19836;SDS011;10079;55.740;37.662;2023-05-02T17:23:28;2.87;;;1.40;;
19836;SDS011;10079;55.740;37.662;2023-05-02T17:26:09;5.57;;;1.63;;
19836;SDS011;10079;55.740;37.662;2023-05-02T17:29:02;4.83;;;3.17;;
19836;SDS011;10079;55.740;37.662;2023-05-02T17:31:43;4.47;;;1.63;;
19836;SDS011;10079;55.740;37.662;2023-05-02T17:34:24;6.63;;;2.00;;
19836;SDS011;10079;55.740;37.662;2023-05-02T17:37:05;5.07;;;2.00;;
19836;SDS011;10079;55.740;37.662;2023-05-02T17:39:46;8.83;;;2.40;;
19836;SDS011;10079;55.740;37.662;2023-05-02T17:42:26;6.93;;;2.10;;
19836;SDS011;10079;55.740;37.662;2023-05-02T17:45:08;8.77;;;2.40;;
19836;SDS011;10079;55.740;37.662;2023-05-02T17:47:50;9.03;;;2.90;;
19836;SDS011;10079;55.740;37.662;2023-05-02T17:50:43;10.90;;;2.60;;
19836;SDS011;10079;55.740;37.662;2023-05-02T17:53:24;6.33;;;2.10;;
19836;SDS011;10079;55.740;37.662;2023-05-02T17:56:05;9.40;;;2.80;;
19836;SDS011;10079;55.740;37.662;2023-05-02T17:58:58;11.73;;;2.73;;
19836;SDS011;10079;55.740;37.662;2023-05-02T18:01:39;6.57;;;2.70;;
19836;SDS011;10079;55.740;37.662;2023-05-02T18:04:19;4.60;;;2.50;;
19836;SDS011;10079;55.740;37.662;2023-05-02T18:07:01;5.87;;;2.77;;
19836;SDS011;10079;55.740;37.662;2023-05-02T18:09:50;6.67;;;2.70;;
19836;SDS011;10079;55.740;37.662;2023-05-02T18:12:43;7.67;;;2.67;;
19836;SDS011;10079;55.740;37.662;2023-05-02T18:15:34;10.23;;;2.87;;
19836;SDS011;10079;55.740;37.662;2023-05-02T18:18:18;8.13;;;2.80;;
19836;SDS011;10079;55.740;37.662;2023-05-02T18:21:02;7.57;;;2.70;;
19836;SDS011;10079;55.740;37.662;2023-05-02T18:23:53;9.80;;;3.50;;
19836;SDS011;10079;55.740;37.662;2023-05-02T18:26:46;8.27;;;2.83;;
19836;SDS011;10079;55.740;37.662;2023-05-02T18:29:33;5.27;;;2.53;;
19836;SDS011;10079;55.740;37.662;2023-05-02T18:32:20;6.67;;;2.57;;
19836;SDS011;10079;55.740;37.662;2023-05-02T18:35:08;9.93;;;2.90;;
19836;SDS011;10079;55.740;37.662;2023-05-02T18:37:51;8.50;;;2.87;;
19836;SDS011;10079;55.740;37.662;2023-05-02T18:40:35;7.03;;;2.80;;
19836;SDS011;10079;55.740;37.662;2023-05-02T18:43:19;6.67;;;2.90;;
19836;SDS011;10079;55.740;37.662;2023-05-02T18:46:08;8.43;;;2.97;;
19836;SDS011;10079;55.740;37.662;2023-05-02T18:48:52;8.27;;;3.00;;
19836;SDS011;10079;55.740;37.662;2023-05-02T18:51:42;6.67;;;3.00;;
19836;SDS011;10079;55.740;37.662;2023-05-02T18:54:28;7.27;;;3.10;;
19836;SDS011;10079;55.740;37.662;2023-05-02T18:57:13;7.43;;;2.70;;
19836;SDS011;10079;55.740;37.662;2023-05-02T19:00:03;5.90;;;3.27;;
19836;SDS011;10079;55.740;37.662;2023-05-02T19:03:03;8.03;;;3.30;;
19836;SDS011;10079;55.740;37.662;2023-05-02T19:05:52;6.85;;;3.40;;
19836;SDS011;10079;55.740;37.662;2023-05-02T19:08:34;5.93;;;2.97;;
19836;SDS011;10079;55.740;37.662;2023-05-02T19:11:16;6.77;;;2.73;;
19836;SDS011;10079;55.740;37.662;2023-05-02T19:14:08;6.37;;;3.27;;
19836;SDS011;10079;55.740;37.662;2023-05-02T19:27:31;6.63;;;3.03;;
19836;SDS011;10079;55.740;37.662;2023-05-02T19:30:18;9.93;;;3.30;;
19836;SDS011;10079;55.740;37.662;2023-05-02T19:33:07;7.90;;;3.60;;
19836;SDS011;10079;55.740;37.662;2023-05-02T19:35:51;10.60;;;3.20;;
19836;SDS011;10079;55.740;37.662;2023-05-02T19:38:46;9.57;;;3.50;;
19836;SDS011;10079;55.740;37.662;2023-05-02T19:41:29;9.13;;;3.17;;
19836;SDS011;10079;55.740;37.662;2023-05-02T19:44:10;6.67;;;3.57;;
19836;SDS011;10079;55.740;37.662;2023-05-02T19:46:51;10.53;;;3.53;;
19836;SDS011;10079;55.740;37.662;2023-05-02T19:49:40;8.30;;;3.13;;
19836;SDS011;10079;55.740;37.662;2023-05-02T19:52:24;7.07;;;3.70;;
19836;SDS011;10079;55.740;37.662;2023-05-02T19:55:07;8.73;;;3.97;;
19836;SDS011;10079;55.740;37.662;2023-05-02T20:00:50;7.10;;;3.70;;
19836;SDS011;10079;55.740;37.662;2023-05-02T20:03:30;6.97;;;4.13;;
19836;SDS011;10079;55.740;37.662;2023-05-02T20:06:11;6.77;;;3.37;;
19836;SDS011;10079;55.740;37.662;2023-05-02T20:08:56;7.60;;;4.10;;
19836;SDS011;10079;55.740;37.662;2023-05-02T20:11:40;10.53;;;4.03;;
19836;SDS011;10079;55.740;37.662;2023-05-02T20:14:27;8.17;;;4.20;;
19836;SDS011;10079;55.740;37.662;2023-05-02T20:17:12;8.67;;;4.10;;
19836;SDS011;10079;55.740;37.662;2023-05-02T20:19:57;11.03;;;4.50;;
19836;SDS011;10079;55.740;37.662;2023-05-02T20:33:34;15.10;;;4.77;;
19836;SDS011;10079;55.740;37.662;2023-05-02T20:36:19;10.73;;;4.10;;
19836;SDS011;10079;55.740;37.662;2023-05-02T20:39:05;10.47;;;4.30;;
19836;SDS011;10079;55.740;37.662;2023-05-02T20:41:47;12.20;;;4.43;;
19836;SDS011;10079;55.740;37.662;2023-05-02T20:44:30;13.60;;;4.67;;
19836;SDS011;10079;55.740;37.662;2023-05-02T20:47:14;9.03;;;3.90;;
19836;SDS011;10079;55.740;37.662;2023-05-02T20:49:56;9.27;;;4.10;;
19836;SDS011;10079;55.740;37.662;2023-05-02T20:52:43;12.97;;;4.17;;
19836;SDS011;10079;55.740;37.662;2023-05-02T20:55:24;7.77;;;3.70;;
19836;SDS011;10079;55.740;37.662;2023-05-02T20:58:06;10.53;;;3.97;;
19836;SDS011;10079;55.740;37.662;2023-05-02T21:00:47;8.47;;;3.73;;
19836;SDS011;10079;55.740;37.662;2023-05-02T21:03:40;8.47;;;3.50;;
19836;SDS011;10079;55.740;37.662;2023-05-02T21:06:28;11.20;;;4.23;;
19836;SDS011;10079;55.740;37.662;2023-05-02T21:09:09;10.97;;;4.10;;
19836;SDS011;10079;55.740;37.662;2023-05-02T21:11:49;6.03;;;4.00;;
19836;SDS011;10079;55.740;37.662;2023-05-02T21:29:31;8.47;;;4.20;;
19836;SDS011;10079;55.740;37.662;2023-05-02T21:32:12;6.27;;;3.63;;